createdAt,value
2023-01-20T00:04:04.703Z,1.07
2023-01-20T00:08:18.584Z,1.08
2023-01-20T00:29:54.965Z,1.18
2023-01-20T00:34:16.778Z,1.17
2023-01-20T00:38:45.995Z,1.16
2023-01-20T00:43:15.756Z,1.16
2023-01-20T01:00:24.838Z,1.29
2023-01-20T01:08:59.009Z,1.32
2023-01-20T01:13:29.132Z,1.31
2023-01-20T01:18:00.132Z,1.30
2023-01-20T01:35:20.792Z,1.33
2023-01-20T01:39:42.460Z,1.30
2023-01-20T01:44:15.123Z,1.31
2023-01-20T01:52:29.881Z,1.35
2023-01-20T01:56:59.558Z,1.33
2023-01-20T02:14:25.920Z,1.40
2023-01-20T02:18:57.609Z,1.40
2023-01-20T02:23:41.927Z,1.39
2023-01-20T02:28:10.473Z,1.37
2023-01-20T02:50:42.031Z,1.44
2023-01-20T02:55:10.372Z,1.44
2023-01-20T02:59:45.268Z,1.45
2023-01-20T03:04:15.184Z,1.46
2023-01-20T03:21:50.299Z,1.51
2023-01-20T03:26:19.152Z,1.53
2023-01-20T03:30:48.038Z,1.53
2023-01-20T03:35:17.707Z,1.55
2023-01-20T03:39:46.104Z,1.58
2023-01-20T03:44:19.670Z,1.59
2023-01-20T04:10:48.547Z,1.71
2023-01-20T04:15:17.685Z,1.69
2023-01-20T04:19:33.282Z,1.71
2023-01-20T04:24:02.083Z,1.72
2023-01-20T04:28:31.951Z,1.73
2023-01-20T04:54:05.945Z,1.73
2023-01-20T04:58:28.184Z,1.71
2023-01-20T05:02:50.077Z,1.68
2023-01-20T05:07:19.415Z,1.66
2023-01-20T05:11:40.582Z,1.65
2023-01-20T05:33:35.214Z,1.72
2023-01-20T05:37:57.591Z,1.73
2023-01-20T05:42:18.061Z,1.74
2023-01-20T05:45:42.424Z,1.73
2023-01-20T05:48:34.791Z,1.73
2023-01-20T05:53:02.227Z,1.73
2023-01-20T05:57:02.513Z,1.71
2023-01-20T06:01:20.416Z,1.71
2023-01-20T06:24:08.369Z,1.76
2023-01-20T06:28:30.681Z,1.73
2023-01-20T06:32:59.415Z,1.73
2023-01-20T06:37:28.112Z,1.68
2023-01-20T06:54:51.930Z,1.74
2023-01-20T06:59:20.922Z,1.76
2023-01-20T07:03:38.827Z,1.76
2023-01-20T07:08:08.893Z,1.75
2023-01-20T07:38:10.369Z,1.88
2023-01-20T07:42:38.499Z,1.90
2023-01-20T07:47:01.774Z,1.89
2023-01-20T07:50:51.899Z,1.89
2023-01-20T08:12:26.977Z,1.93
2023-01-20T08:16:55.788Z,1.90
2023-01-20T08:21:11.421Z,1.90
2023-01-20T08:25:40.217Z,1.84
2023-01-20T08:48:16.842Z,1.71
2023-01-20T08:52:46.067Z,1.55
2023-01-20T08:57:15.298Z,1.54
2023-01-20T09:27:29.862Z,1.81
2023-01-20T09:31:41.953Z,1.92
2023-01-20T09:36:05.228Z,1.88
2023-01-20T09:40:23.201Z,1.81
2023-01-20T09:44:55.379Z,1.74
2023-01-20T09:49:28.656Z,1.67
2023-01-20T09:54:06.785Z,1.69
2023-01-20T09:58:21.583Z,1.79
2023-01-20T10:06:28.416Z,2.00
2023-01-20T10:11:00.428Z,2.10
2023-01-20T10:15:30.105Z,2.13
2023-01-20T10:20:02.667Z,2.12
2023-01-20T10:24:38.046Z,2.06
2023-01-20T11:00:16.828Z,1.95
2023-01-20T11:04:45.764Z,1.92
2023-01-20T11:09:24.484Z,1.92
2023-01-20T11:13:57.216Z,1.93
2023-01-20T11:31:01.709Z,2.31
2023-01-20T11:35:30.046Z,2.37
2023-01-20T11:40:08.443Z,2.30
2023-01-20T11:44:30.600Z,2.16
2023-01-20T11:49:04.584Z,2.17
2023-01-20T11:53:26.197Z,2.14
2023-01-20T11:57:55.479Z,2.22
2023-01-20T12:02:32.750Z,2.34
2023-01-20T12:06:31.636Z,2.41
2023-01-20T12:28:59.171Z,2.16
2023-01-20T12:33:08.602Z,2.22
2023-01-20T12:37:37.337Z,2.29
2023-01-20T12:42:03.060Z,2.19
2023-01-20T12:46:37.408Z,2.25
2023-01-20T13:05:17.174Z,2.61
2023-01-20T13:09:49.749Z,2.65
2023-01-20T13:14:29.328Z,2.66
2023-01-20T13:19:10.447Z,2.65
2023-01-20T13:23:40.975Z,2.52
2023-01-20T13:27:57.697Z,2.40
2023-01-20T13:32:13.857Z,2.38
2023-01-20T13:54:09.913Z,2.24
2023-01-20T13:58:18.058Z,2.10
2023-01-20T14:02:59.305Z,1.98
2023-01-20T14:19:53.062Z,1.56
2023-01-20T14:24:15.387Z,1.56
2023-01-20T14:28:16.316Z,1.62
2023-01-20T14:54:20.168Z,1.82
2023-01-20T14:58:42.221Z,1.79
2023-01-20T15:03:11.827Z,1.83
2023-01-20T15:11:57.539Z,1.88
2023-01-20T15:32:59.375Z,1.64
2023-01-20T15:37:28.809Z,1.58
2023-01-20T15:58:53.068Z,1.60
2023-01-20T16:03:15.180Z,1.61
2023-01-20T16:07:44.461Z,1.58
2023-01-20T16:25:02.564Z,1.46
2023-01-20T16:29:32.273Z,1.52
2023-01-20T16:34:03.101Z,1.58
2023-01-20T16:38:32.584Z,1.63
2023-01-20T16:55:35.784Z,1.52
2023-01-20T16:59:58.060Z,1.43
2023-01-20T17:04:30.421Z,1.28
2023-01-20T17:08:52.672Z,1.12
2023-01-20T17:13:23.268Z,0.97
2023-01-20T17:34:20.708Z,0.72
2023-01-20T17:38:43.028Z,0.64
2023-01-20T17:43:12.460Z,0.61
2023-01-20T18:13:31.247Z,0.73
2023-01-20T18:18:00.089Z,0.72
2023-01-20T18:22:19.424Z,0.69
2023-01-20T18:48:02.028Z,0.70
2023-01-20T18:52:06.667Z,0.69
2023-01-20T18:56:06.970Z,0.66
2023-01-20T19:00:09.262Z,0.68
2023-01-20T19:04:02.071Z,0.68
2023-01-20T19:08:03.724Z,0.69
2023-01-20T19:12:33.043Z,0.69
2023-01-20T19:16:34.022Z,0.63
2023-01-20T19:46:24.788Z,0.34
2023-01-20T19:50:19.150Z,0.29
2023-01-20T19:54:47.419Z,0.23
2023-01-20T19:59:17.762Z,0.17
2023-01-20T20:07:42.999Z,0.02
2023-01-20T20:12:12.806Z,-0.06
2023-01-20T20:33:29.062Z,-0.44
2023-01-20T20:37:59.097Z,-0.50
2023-01-20T20:47:15.172Z,-0.61
2023-01-20T21:04:11.785Z,-0.47
2023-01-20T21:08:13.651Z,-0.44
2023-01-20T21:12:31.669Z,-0.41
2023-01-20T21:17:01.645Z,-0.35
2023-01-20T21:21:37.620Z,-0.30
2023-01-20T21:47:16.141Z,0.00
2023-01-20T21:51:44.002Z,0.03
2023-01-20T21:56:03.969Z,0.06
2023-01-20T22:14:26.748Z,0.20
2023-01-20T22:18:37.514Z,0.20
2023-01-20T22:23:00.279Z,0.19
2023-01-20T22:53:08.303Z,0.22
2023-01-20T22:57:37.445Z,0.18
2023-01-20T23:06:36.500Z,0.19
2023-01-20T23:23:19.000Z,0.27
2023-01-20T23:27:47.950Z,0.24
2023-01-20T23:32:17.359Z,0.17
2023-01-20T23:36:45.038Z,0.18
2023-01-20T23:44:58.001Z,0.18
2023-01-20T23:49:14.884Z,0.16
2023-01-20T23:53:43.696Z,0.13
2023-01-20T23:58:12.957Z,0.13
